sensor_id;sensor_type;location;lat;lon;timestamp;P1;durP1;ratioP1;P2;durP2;ratioP2
64826;SDS011;51265;53.972;12.286;2023-05-03T00:02:18;12.80;;;2.60;;
64826;SDS011;51265;53.972;12.286;2023-05-03T00:04:44;5.82;;;2.22;;
64826;SDS011;51265;53.972;12.286;2023-05-03T00:07:12;5.60;;;2.10;;
64826;SDS011;51265;53.972;12.286;2023-05-03T00:09:39;7.57;;;3.05;;
64826;SDS011;51265;53.972;12.286;2023-05-03T00:12:06;14.00;;;3.22;;
64826;SDS011;51265;53.972;12.286;2023-05-03T00:14:32;2.50;;;2.10;;
64826;SDS011;51265;53.972;12.286;2023-05-03T00:16:58;8.43;;;2.65;;
64826;SDS011;51265;53.972;12.286;2023-05-03T00:19:25;7.97;;;2.58;;
64826;SDS011;51265;53.972;12.286;2023-05-03T00:21:58;8.95;;;2.45;;
64826;SDS011;51265;53.972;12.286;2023-05-03T00:24:25;8.73;;;3.45;;
64826;SDS011;51265;53.972;12.286;2023-05-03T00:26:52;9.70;;;3.05;;
64826;SDS011;51265;53.972;12.286;2023-05-03T00:29:19;11.20;;;2.80;;
64826;SDS011;51265;53.972;12.286;2023-05-03T00:31:47;5.90;;;2.45;;
64826;SDS011;51265;53.972;12.286;2023-05-03T00:34:14;4.75;;;2.60;;
64826;SDS011;51265;53.972;12.286;2023-05-03T00:36:40;9.10;;;2.67;;
64826;SDS011;51265;53.972;12.286;2023-05-03T00:39:06;6.28;;;2.63;;
64826;SDS011;51265;53.972;12.286;2023-05-03T00:41:33;9.05;;;2.85;;
64826;SDS011;51265;53.972;12.286;2023-05-03T00:43:59;6.55;;;2.83;;
64826;SDS011;51265;53.972;12.286;2023-05-03T00:46:26;8.90;;;3.15;;
64826;SDS011;51265;53.972;12.286;2023-05-03T00:48:52;9.82;;;3.03;;
64826;SDS011;51265;53.972;12.286;2023-05-03T00:51:19;6.25;;;2.78;;
64826;SDS011;51265;53.972;12.286;2023-05-03T00:53:46;11.95;;;3.20;;
64826;SDS011;51265;53.972;12.286;2023-05-03T00:56:14;9.32;;;2.90;;
64826;SDS011;51265;53.972;12.286;2023-05-03T00:58:51;9.45;;;3.30;;
64826;SDS011;51265;53.972;12.286;2023-05-03T01:01:17;9.60;;;3.53;;
64826;SDS011;51265;53.972;12.286;2023-05-03T01:03:44;7.65;;;2.78;;
64826;SDS011;51265;53.972;12.286;2023-05-03T01:09:03;11.80;;;3.30;;
64826;SDS011;51265;53.972;12.286;2023-05-03T01:17:11;10.93;;;3.45;;
64826;SDS011;51265;53.972;12.286;2023-05-03T01:19:43;6.60;;;3.17;;
64826;SDS011;51265;53.972;12.286;2023-05-03T01:25:07;8.02;;;2.85;;
64826;SDS011;51265;53.972;12.286;2023-05-03T01:27:35;12.55;;;3.67;;
64826;SDS011;51265;53.972;12.286;2023-05-03T01:30:02;7.90;;;2.95;;
64826;SDS011;51265;53.972;12.286;2023-05-03T01:32:58;9.20;;;3.10;;
64826;SDS011;51265;53.972;12.286;2023-05-03T01:35:35;13.52;;;3.53;;
64826;SDS011;51265;53.972;12.286;2023-05-03T01:38:07;8.93;;;3.50;;
64826;SDS011;51265;53.972;12.286;2023-05-03T01:40:39;13.82;;;3.80;;
64826;SDS011;51265;53.972;12.286;2023-05-03T01:43:10;8.07;;;3.10;;
64826;SDS011;51265;53.972;12.286;2023-05-03T01:45:39;8.73;;;3.60;;
64826;SDS011;51265;53.972;12.286;2023-05-03T01:48:09;7.25;;;3.33;;
64826;SDS011;51265;53.972;12.286;2023-05-03T01:50:40;12.55;;;3.95;;
64826;SDS011;51265;53.972;12.286;2023-05-03T01:53:07;12.52;;;3.08;;
64826;SDS011;51265;53.972;12.286;2023-05-03T01:55:33;9.65;;;3.70;;
64826;SDS011;51265;53.972;12.286;2023-05-03T01:58:00;12.68;;;4.13;;
64826;SDS011;51265;53.972;12.286;2023-05-03T02:00:26;11.85;;;4.18;;
64826;SDS011;51265;53.972;12.286;2023-05-03T02:02:53;10.30;;;4.20;;
64826;SDS011;51265;53.972;12.286;2023-05-03T02:05:20;8.18;;;3.83;;
64826;SDS011;51265;53.972;12.286;2023-05-03T02:07:46;11.10;;;3.92;;
64826;SDS011;51265;53.972;12.286;2023-05-03T02:10:12;11.52;;;4.07;;
64826;SDS011;51265;53.972;12.286;2023-05-03T02:12:42;11.60;;;4.22;;
64826;SDS011;51265;53.972;12.286;2023-05-03T02:15:10;9.70;;;4.03;;
64826;SDS011;51265;53.972;12.286;2023-05-03T02:17:37;10.82;;;4.05;;
64826;SDS011;51265;53.972;12.286;2023-05-03T02:20:06;14.93;;;4.03;;
64826;SDS011;51265;53.972;12.286;2023-05-03T02:22:35;12.70;;;4.10;;
64826;SDS011;51265;53.972;12.286;2023-05-03T02:25:02;15.48;;;4.13;;
64826;SDS011;51265;53.972;12.286;2023-05-03T02:27:28;10.93;;;3.95;;
64826;SDS011;51265;53.972;12.286;2023-05-03T02:29:55;10.35;;;4.63;;
64826;SDS011;51265;53.972;12.286;2023-05-03T02:32:23;13.25;;;4.78;;
64826;SDS011;51265;53.972;12.286;2023-05-03T02:34:51;12.02;;;4.10;;
64826;SDS011;51265;53.972;12.286;2023-05-03T02:37:20;12.90;;;5.05;;
64826;SDS011;51265;53.972;12.286;2023-05-03T02:39:47;12.88;;;4.82;;
64826;SDS011;51265;53.972;12.286;2023-05-03T02:42:15;15.25;;;5.03;;
64826;SDS011;51265;53.972;12.286;2023-05-03T02:44:42;12.48;;;4.93;;
64826;SDS011;51265;53.972;12.286;2023-05-03T02:47:10;16.45;;;4.88;;
64826;SDS011;51265;53.972;12.286;2023-05-03T02:49:39;14.85;;;4.75;;
64826;SDS011;51265;53.972;12.286;2023-05-03T02:52:06;13.80;;;4.07;;
64826;SDS011;51265;53.972;12.286;2023-05-03T02:54:33;12.30;;;4.18;;
64826;SDS011;51265;53.972;12.286;2023-05-03T02:57:04;14.70;;;5.57;;
64826;SDS011;51265;53.972;12.286;2023-05-03T02:59:31;17.48;;;4.93;;
64826;SDS011;51265;53.972;12.286;2023-05-03T03:01:59;12.18;;;5.15;;
64826;SDS011;51265;53.972;12.286;2023-05-03T03:04:26;14.23;;;4.80;;
64826;SDS011;51265;53.972;12.286;2023-05-03T03:06:52;13.50;;;5.03;;
64826;SDS011;51265;53.972;12.286;2023-05-03T03:09:19;18.40;;;4.85;;
64826;SDS011;51265;53.972;12.286;2023-05-03T03:11:45;20.50;;;5.00;;
64826;SDS011;51265;53.972;12.286;2023-05-03T03:14:12;18.23;;;5.25;;
64826;SDS011;51265;53.972;12.286;2023-05-03T03:16:44;12.32;;;5.30;;
64826;SDS011;51265;53.972;12.286;2023-05-03T03:19:11;16.77;;;5.22;;
64826;SDS011;51265;53.972;12.286;2023-05-03T03:21:38;11.50;;;4.97;;
64826;SDS011;51265;53.972;12.286;2023-05-03T03:24:04;15.13;;;4.70;;
64826;SDS011;51265;53.972;12.286;2023-05-03T03:26:31;16.85;;;5.20;;
64826;SDS011;51265;53.972;12.286;2023-05-03T03:28:59;11.20;;;4.82;;
64826;SDS011;51265;53.972;12.286;2023-05-03T03:31:26;16.85;;;4.68;;
64826;SDS011;51265;53.972;12.286;2023-05-03T03:33:55;9.63;;;4.90;;
64826;SDS011;51265;53.972;12.286;2023-05-03T03:36:23;18.02;;;5.53;;
64826;SDS011;51265;53.972;12.286;2023-05-03T03:38:49;13.45;;;5.15;;
64826;SDS011;51265;53.972;12.286;2023-05-03T03:41:16;13.90;;;5.40;;
64826;SDS011;51265;53.972;12.286;2023-05-03T03:43:43;13.10;;;5.20;;
64826;SDS011;51265;53.972;12.286;2023-05-03T03:46:15;14.95;;;5.32;;
64826;SDS011;51265;53.972;12.286;2023-05-03T03:48:42;16.60;;;6.72;;
64826;SDS011;51265;53.972;12.286;2023-05-03T03:51:09;13.43;;;5.25;;
64826;SDS011;51265;53.972;12.286;2023-05-03T03:56:08;16.23;;;5.47;;
64826;SDS011;51265;53.972;12.286;2023-05-03T03:58:35;21.00;;;5.60;;
64826;SDS011;51265;53.972;12.286;2023-05-03T04:01:03;17.90;;;5.35;;
64826;SDS011;51265;53.972;12.286;2023-05-03T04:03:30;16.20;;;5.60;;
64826;SDS011;51265;53.972;12.286;2023-05-03T04:05:57;15.15;;;5.78;;
64826;SDS011;51265;53.972;12.286;2023-05-03T04:08:25;19.23;;;5.15;;
64826;SDS011;51265;53.972;12.286;2023-05-03T04:10:51;16.88;;;6.00;;
64826;SDS011;51265;53.972;12.286;2023-05-03T04:13:18;19.70;;;5.72;;
64826;SDS011;51265;53.972;12.286;2023-05-03T04:15:48;13.55;;;4.90;;
64826;SDS011;51265;53.972;12.286;2023-05-03T04:18:18;16.88;;;6.10;;
64826;SDS011;51265;53.972;12.286;2023-05-03T04:20:45;15.15;;;5.85;;
64826;SDS011;51265;53.972;12.286;2023-05-03T04:23:14;18.05;;;5.32;;
64826;SDS011;51265;53.972;12.286;2023-05-03T04:25:42;20.38;;;5.97;;
64826;SDS011;51265;53.972;12.286;2023-05-03T04:28:12;20.20;;;5.43;;
64826;SDS011;51265;53.972;12.286;2023-05-03T04:30:43;14.77;;;5.18;;
64826;SDS011;51265;53.972;12.286;2023-05-03T04:33:14;16.17;;;5.22;;
64826;SDS011;51265;53.972;12.286;2023-05-03T04:35:42;16.50;;;5.32;;
64826;SDS011;51265;53.972;12.286;2023-05-03T04:38:12;14.18;;;5.60;;
64826;SDS011;51265;53.972;12.286;2023-05-03T04:40:39;22.23;;;6.30;;
64826;SDS011;51265;53.972;12.286;2023-05-03T04:43:08;14.73;;;4.63;;
64826;SDS011;51265;53.972;12.286;2023-05-03T04:45:39;13.50;;;5.53;;
64826;SDS011;51265;53.972;12.286;2023-05-03T04:48:08;17.80;;;5.82;;
64826;SDS011;51265;53.972;12.286;2023-05-03T04:50:35;17.83;;;6.55;;
64826;SDS011;51265;53.972;12.286;2023-05-03T04:53:03;18.75;;;5.32;;
64826;SDS011;51265;53.972;12.286;2023-05-03T04:55:33;12.95;;;4.93;;
64826;SDS011;51265;53.972;12.286;2023-05-03T04:58:01;16.08;;;5.22;;
64826;SDS011;51265;53.972;12.286;2023-05-03T05:00:27;16.55;;;5.45;;
64826;SDS011;51265;53.972;12.286;2023-05-03T05:03:00;14.10;;;4.75;;
64826;SDS011;51265;53.972;12.286;2023-05-03T05:05:29;16.63;;;5.07;;
64826;SDS011;51265;53.972;12.286;2023-05-03T05:07:58;14.13;;;5.60;;
64826;SDS011;51265;53.972;12.286;2023-05-03T05:10:27;18.13;;;4.57;;
64826;SDS011;51265;53.972;12.286;2023-05-03T05:12:55;15.68;;;4.65;;
64826;SDS011;51265;53.972;12.286;2023-05-03T05:15:21;12.13;;;4.63;;
64826;SDS011;51265;53.972;12.286;2023-05-03T05:17:48;20.80;;;4.55;;
64826;SDS011;51265;53.972;12.286;2023-05-03T05:20:18;17.13;;;4.45;;
64826;SDS011;51265;53.972;12.286;2023-05-03T05:22:48;13.82;;;4.18;;
64826;SDS011;51265;53.972;12.286;2023-05-03T05:25:14;13.32;;;3.80;;
64826;SDS011;51265;53.972;12.286;2023-05-03T05:27:41;12.93;;;3.95;;
64826;SDS011;51265;53.972;12.286;2023-05-03T05:30:08;14.18;;;4.78;;
64826;SDS011;51265;53.972;12.286;2023-05-03T05:32:47;17.75;;;4.00;;
64826;SDS011;51265;53.972;12.286;2023-05-03T05:35:14;16.77;;;4.20;;
64826;SDS011;51265;53.972;12.286;2023-05-03T05:37:43;15.38;;;5.50;;
64826;SDS011;51265;53.972;12.286;2023-05-03T05:40:11;15.50;;;3.95;;
64826;SDS011;51265;53.972;12.286;2023-05-03T05:42:45;12.35;;;3.45;;
64826;SDS011;51265;53.972;12.286;2023-05-03T05:45:14;14.27;;;3.50;;
64826;SDS011;51265;53.972;12.286;2023-05-03T05:47:42;10.30;;;3.05;;
64826;SDS011;51265;53.972;12.286;2023-05-03T05:50:09;11.95;;;3.22;;
64826;SDS011;51265;53.972;12.286;2023-05-03T05:52:36;13.07;;;3.10;;
64826;SDS011;51265;53.972;12.286;2023-05-03T05:55:04;15.70;;;3.85;;
64826;SDS011;51265;53.972;12.286;2023-05-03T05:57:33;12.45;;;3.55;;
64826;SDS011;51265;53.972;12.286;2023-05-03T06:00:00;14.40;;;3.35;;
64826;SDS011;51265;53.972;12.286;2023-05-03T06:02:26;10.18;;;3.42;;
64826;SDS011;51265;53.972;12.286;2023-05-03T06:04:54;9.75;;;3.10;;
64826;SDS011;51265;53.972;12.286;2023-05-03T06:07:21;9.05;;;3.40;;
64826;SDS011;51265;53.972;12.286;2023-05-03T06:09:50;10.18;;;3.08;;
64826;SDS011;51265;53.972;12.286;2023-05-03T06:12:16;12.80;;;2.83;;
64826;SDS011;51265;53.972;12.286;2023-05-03T06:14:43;13.35;;;3.00;;
64826;SDS011;51265;53.972;12.286;2023-05-03T06:17:09;14.70;;;3.72;;
64826;SDS011;51265;53.972;12.286;2023-05-03T06:19:36;18.58;;;4.72;;
64826;SDS011;51265;53.972;12.286;2023-05-03T06:22:03;8.80;;;2.85;;
64826;SDS011;51265;53.972;12.286;2023-05-03T06:24:31;15.02;;;3.10;;
64826;SDS011;51265;53.972;12.286;2023-05-03T06:26:58;10.93;;;2.92;;
64826;SDS011;51265;53.972;12.286;2023-05-03T06:29:25;9.98;;;2.80;;
64826;SDS011;51265;53.972;12.286;2023-05-03T06:31:53;12.48;;;3.00;;
64826;SDS011;51265;53.972;12.286;2023-05-03T06:34:20;13.40;;;3.55;;
64826;SDS011;51265;53.972;12.286;2023-05-03T06:36:48;7.40;;;2.88;;
64826;SDS011;51265;53.972;12.286;2023-05-03T06:39:15;13.43;;;3.30;;
64826;SDS011;51265;53.972;12.286;2023-05-03T06:41:43;13.23;;;3.35;;
64826;SDS011;51265;53.972;12.286;2023-05-03T06:44:10;13.23;;;3.63;;
64826;SDS011;51265;53.972;12.286;2023-05-03T06:46:37;11.32;;;3.10;;
64826;SDS011;51265;53.972;12.286;2023-05-03T06:49:19;8.48;;;3.05;;
64826;SDS011;51265;53.972;12.286;2023-05-03T06:51:47;10.38;;;2.22;;
64826;SDS011;51265;53.972;12.286;2023-05-03T06:54:13;8.98;;;2.33;;
64826;SDS011;51265;53.972;12.286;2023-05-03T06:56:42;8.50;;;2.78;;
64826;SDS011;51265;53.972;12.286;2023-05-03T06:59:08;6.88;;;1.90;;
64826;SDS011;51265;53.972;12.286;2023-05-03T07:01:34;7.50;;;1.70;;
64826;SDS011;51265;53.972;12.286;2023-05-03T07:04:01;9.50;;;1.90;;
64826;SDS011;51265;53.972;12.286;2023-05-03T07:06:27;7.60;;;1.65;;
64826;SDS011;51265;53.972;12.286;2023-05-03T07:08:54;9.82;;;2.08;;
64826;SDS011;51265;53.972;12.286;2023-05-03T07:11:20;9.82;;;1.85;;
64826;SDS011;51265;53.972;12.286;2023-05-03T07:13:53;11.73;;;2.10;;
64826;SDS011;51265;53.972;12.286;2023-05-03T07:16:20;9.02;;;2.20;;
64826;SDS011;51265;53.972;12.286;2023-05-03T07:18:47;10.15;;;2.40;;
64826;SDS011;51265;53.972;12.286;2023-05-03T07:21:14;9.93;;;1.83;;
64826;SDS011;51265;53.972;12.286;2023-05-03T07:23:40;11.45;;;2.15;;
64826;SDS011;51265;53.972;12.286;2023-05-03T07:26:07;12.07;;;2.13;;
64826;SDS011;51265;53.972;12.286;2023-05-03T07:28:33;16.05;;;2.80;;
64826;SDS011;51265;53.972;12.286;2023-05-03T07:31:00;11.90;;;2.33;;
64826;SDS011;51265;53.972;12.286;2023-05-03T07:33:28;9.88;;;1.90;;
64826;SDS011;51265;53.972;12.286;2023-05-03T07:35:54;9.63;;;2.20;;
64826;SDS011;51265;53.972;12.286;2023-05-03T07:38:21;10.02;;;1.73;;
64826;SDS011;51265;53.972;12.286;2023-05-03T07:40:47;10.00;;;2.72;;
64826;SDS011;51265;53.972;12.286;2023-05-03T07:43:14;11.00;;;1.58;;
64826;SDS011;51265;53.972;12.286;2023-05-03T07:45:41;9.23;;;1.70;;
64826;SDS011;51265;53.972;12.286;2023-05-03T07:48:08;10.82;;;2.53;;
64826;SDS011;51265;53.972;12.286;2023-05-03T07:50:34;7.93;;;1.73;;
64826;SDS011;51265;53.972;12.286;2023-05-03T07:53:01;6.90;;;1.42;;
64826;SDS011;51265;53.972;12.286;2023-05-03T07:55:27;5.20;;;1.38;;
64826;SDS011;51265;53.972;12.286;2023-05-03T07:57:55;8.38;;;1.30;;
64826;SDS011;51265;53.972;12.286;2023-05-03T08:00:24;7.88;;;1.30;;
64826;SDS011;51265;53.972;12.286;2023-05-03T08:02:52;9.10;;;1.40;;
64826;SDS011;51265;53.972;12.286;2023-05-03T08:05:18;10.18;;;1.30;;
64826;SDS011;51265;53.972;12.286;2023-05-03T08:07:45;6.50;;;1.60;;
64826;SDS011;51265;53.972;12.286;2023-05-03T08:10:11;7.50;;;1.35;;
64826;SDS011;51265;53.972;12.286;2023-05-03T08:12:38;9.02;;;1.38;;
64826;SDS011;51265;53.972;12.286;2023-05-03T08:15:05;7.95;;;1.55;;
64826;SDS011;51265;53.972;12.286;2023-05-03T08:17:38;10.38;;;1.55;;
64826;SDS011;51265;53.972;12.286;2023-05-03T08:20:10;4.30;;;1.23;;
64826;SDS011;51265;53.972;12.286;2023-05-03T08:22:37;4.68;;;1.38;;
64826;SDS011;51265;53.972;12.286;2023-05-03T08:25:06;8.15;;;1.27;;
64826;SDS011;51265;53.972;12.286;2023-05-03T08:27:33;8.27;;;1.58;;
64826;SDS011;51265;53.972;12.286;2023-05-03T08:29:59;3.60;;;1.25;;
64826;SDS011;51265;53.972;12.286;2023-05-03T08:32:26;5.60;;;1.00;;
64826;SDS011;51265;53.972;12.286;2023-05-03T08:34:53;7.47;;;1.63;;
64826;SDS011;51265;53.972;12.286;2023-05-03T08:37:21;9.90;;;2.05;;
64826;SDS011;51265;53.972;12.286;2023-05-03T08:39:48;5.50;;;1.65;;
64826;SDS011;51265;53.972;12.286;2023-05-03T08:42:16;7.40;;;1.38;;
64826;SDS011;51265;53.972;12.286;2023-05-03T08:44:46;10.75;;;1.65;;
64826;SDS011;51265;53.972;12.286;2023-05-03T08:47:14;7.63;;;1.27;;
64826;SDS011;51265;53.972;12.286;2023-05-03T08:49:44;4.28;;;1.27;;
64826;SDS011;51265;53.972;12.286;2023-05-03T08:52:13;11.80;;;1.58;;
64826;SDS011;51265;53.972;12.286;2023-05-03T08:54:41;8.52;;;1.20;;
64826;SDS011;51265;53.972;12.286;2023-05-03T08:57:12;6.88;;;1.67;;
64826;SDS011;51265;53.972;12.286;2023-05-03T08:59:48;9.00;;;1.20;;
64826;SDS011;51265;53.972;12.286;2023-05-03T09:02:16;7.03;;;0.95;;
64826;SDS011;51265;53.972;12.286;2023-05-03T09:04:43;6.07;;;1.17;;
64826;SDS011;51265;53.972;12.286;2023-05-03T09:07:10;3.55;;;1.13;;
64826;SDS011;51265;53.972;12.286;2023-05-03T09:09:37;4.03;;;1.13;;
64826;SDS011;51265;53.972;12.286;2023-05-03T09:12:04;2.85;;;0.93;;
64826;SDS011;51265;53.972;12.286;2023-05-03T09:14:40;4.97;;;1.40;;
64826;SDS011;51265;53.972;12.286;2023-05-03T09:17:13;6.72;;;1.35;;
64826;SDS011;51265;53.972;12.286;2023-05-03T09:19:51;6.07;;;1.10;;
64826;SDS011;51265;53.972;12.286;2023-05-03T09:22:25;5.57;;;1.40;;
64826;SDS011;51265;53.972;12.286;2023-05-03T09:24:59;3.63;;;0.95;;
64826;SDS011;51265;53.972;12.286;2023-05-03T09:29:53;3.60;;;0.80;;
64826;SDS011;51265;53.972;12.286;2023-05-03T09:32:20;5.30;;;1.35;;
64826;SDS011;51265;53.972;12.286;2023-05-03T09:34:48;4.65;;;0.90;;
64826;SDS011;51265;53.972;12.286;2023-05-03T09:37:14;4.18;;;0.60;;
64826;SDS011;51265;53.972;12.286;2023-05-03T09:39:41;3.35;;;1.17;;
64826;SDS011;51265;53.972;12.286;2023-05-03T09:42:12;5.13;;;1.00;;
64826;SDS011;51265;53.972;12.286;2023-05-03T09:44:47;4.13;;;1.10;;
64826;SDS011;51265;53.972;12.286;2023-05-03T09:47:16;2.03;;;0.70;;
64826;SDS011;51265;53.972;12.286;2023-05-03T09:49:50;6.75;;;0.90;;
64826;SDS011;51265;53.972;12.286;2023-05-03T09:52:17;6.70;;;0.90;;
64826;SDS011;51265;53.972;12.286;2023-05-03T09:54:46;3.58;;;1.00;;
64826;SDS011;51265;53.972;12.286;2023-05-03T09:57:13;5.53;;;1.20;;
64826;SDS011;51265;53.972;12.286;2023-05-03T09:59:40;2.33;;;0.70;;
64826;SDS011;51265;53.972;12.286;2023-05-03T10:02:07;4.20;;;0.70;;
64826;SDS011;51265;53.972;12.286;2023-05-03T10:04:51;3.78;;;0.65;;
64826;SDS011;51265;53.972;12.286;2023-05-03T10:07:22;4.22;;;0.70;;
64826;SDS011;51265;53.972;12.286;2023-05-03T10:09:53;4.22;;;0.88;;
64826;SDS011;51265;53.972;12.286;2023-05-03T10:12:22;3.70;;;0.63;;
64826;SDS011;51265;53.972;12.286;2023-05-03T10:14:48;4.60;;;1.10;;
64826;SDS011;51265;53.972;12.286;2023-05-03T10:17:23;5.63;;;0.95;;
64826;SDS011;51265;53.972;12.286;2023-05-03T10:19:56;5.53;;;0.80;;
64826;SDS011;51265;53.972;12.286;2023-05-03T10:22:32;3.60;;;0.80;;
64826;SDS011;51265;53.972;12.286;2023-05-03T10:25:29;7.35;;;1.33;;
64826;SDS011;51265;53.972;12.286;2023-05-03T10:28:00;7.25;;;0.88;;
64826;SDS011;51265;53.972;12.286;2023-05-03T10:30:35;4.78;;;0.90;;
64826;SDS011;51265;53.972;12.286;2023-05-03T10:33:49;4.90;;;0.88;;
64826;SDS011;51265;53.972;12.286;2023-05-03T10:35:55;4.68;;;1.08;;
64826;SDS011;51265;53.972;12.286;2023-05-03T10:38:23;3.80;;;0.88;;
64826;SDS011;51265;53.972;12.286;2023-05-03T10:40:53;5.32;;;1.38;;
64826;SDS011;51265;53.972;12.286;2023-05-03T10:46:00;4.47;;;0.90;;
64826;SDS011;51265;53.972;12.286;2023-05-03T10:48:31;3.42;;;1.00;;
64826;SDS011;51265;53.972;12.286;2023-05-03T10:54:02;6.53;;;1.25;;
64826;SDS011;51265;53.972;12.286;2023-05-03T10:56:28;3.30;;;0.90;;
64826;SDS011;51265;53.972;12.286;2023-05-03T10:58:54;3.85;;;1.00;;
64826;SDS011;51265;53.972;12.286;2023-05-03T11:01:22;5.13;;;1.58;;
64826;SDS011;51265;53.972;12.286;2023-05-03T11:06:37;5.22;;;1.15;;
64826;SDS011;51265;53.972;12.286;2023-05-03T11:09:06;4.72;;;1.00;;
64826;SDS011;51265;53.972;12.286;2023-05-03T11:11:34;5.10;;;1.02;;
64826;SDS011;51265;53.972;12.286;2023-05-03T11:14:03;8.02;;;1.38;;
64826;SDS011;51265;53.972;12.286;2023-05-03T11:16:30;3.42;;;0.85;;
64826;SDS011;51265;53.972;12.286;2023-05-03T11:18:58;4.93;;;0.90;;
64826;SDS011;51265;53.972;12.286;2023-05-03T11:21:25;7.78;;;1.15;;
64826;SDS011;51265;53.972;12.286;2023-05-03T11:23:52;4.00;;;1.45;;
64826;SDS011;51265;53.972;12.286;2023-05-03T11:26:18;8.18;;;1.30;;
64826;SDS011;51265;53.972;12.286;2023-05-03T11:28:52;3.67;;;1.00;;
64826;SDS011;51265;53.972;12.286;2023-05-03T11:31:19;4.07;;;1.15;;
64826;SDS011;51265;53.972;12.286;2023-05-03T11:33:47;5.97;;;2.08;;
64826;SDS011;51265;53.972;12.286;2023-05-03T11:36:14;4.95;;;1.10;;
64826;SDS011;51265;53.972;12.286;2023-05-03T11:38:41;6.30;;;1.10;;
64826;SDS011;51265;53.972;12.286;2023-05-03T11:41:10;7.40;;;1.60;;
64826;SDS011;51265;53.972;12.286;2023-05-03T11:43:39;4.15;;;1.27;;
64826;SDS011;51265;53.972;12.286;2023-05-03T11:46:07;7.28;;;1.00;;
64826;SDS011;51265;53.972;12.286;2023-05-03T11:48:34;7.00;;;1.40;;
64826;SDS011;51265;53.972;12.286;2023-05-03T11:51:05;4.75;;;1.63;;
64826;SDS011;51265;53.972;12.286;2023-05-03T11:53:33;8.50;;;1.38;;
64826;SDS011;51265;53.972;12.286;2023-05-03T11:56:02;5.70;;;1.13;;
64826;SDS011;51265;53.972;12.286;2023-05-03T11:58:29;5.68;;;1.27;;
64826;SDS011;51265;53.972;12.286;2023-05-03T12:00:55;5.63;;;1.30;;
64826;SDS011;51265;53.972;12.286;2023-05-03T12:03:23;8.13;;;1.55;;
64826;SDS011;51265;53.972;12.286;2023-05-03T12:05:52;5.88;;;1.20;;
64826;SDS011;51265;53.972;12.286;2023-05-03T12:08:18;5.70;;;1.38;;
64826;SDS011;51265;53.972;12.286;2023-05-03T12:10:47;5.95;;;1.30;;
64826;SDS011;51265;53.972;12.286;2023-05-03T12:13:14;5.38;;;1.15;;
64826;SDS011;51265;53.972;12.286;2023-05-03T12:15:41;6.97;;;1.20;;
64826;SDS011;51265;53.972;12.286;2023-05-03T12:18:11;6.18;;;1.25;;
64826;SDS011;51265;53.972;12.286;2023-05-03T12:20:38;6.30;;;1.35;;
64826;SDS011;51265;53.972;12.286;2023-05-03T12:23:05;6.13;;;1.33;;
64826;SDS011;51265;53.972;12.286;2023-05-03T12:25:33;11.85;;;1.60;;
64826;SDS011;51265;53.972;12.286;2023-05-03T12:28:02;4.78;;;1.40;;
64826;SDS011;51265;53.972;12.286;2023-05-03T12:30:30;5.05;;;1.35;;
64826;SDS011;51265;53.972;12.286;2023-05-03T12:32:57;4.82;;;1.02;;
64826;SDS011;51265;53.972;12.286;2023-05-03T12:35:24;5.80;;;1.33;;
64826;SDS011;51265;53.972;12.286;2023-05-03T12:37:51;4.45;;;1.33;;
64826;SDS011;51265;53.972;12.286;2023-05-03T12:40:18;5.47;;;1.17;;
64826;SDS011;51265;53.972;12.286;2023-05-03T12:42:45;13.40;;;1.63;;
64826;SDS011;51265;53.972;12.286;2023-05-03T12:45:11;5.53;;;1.08;;
64826;SDS011;51265;53.972;12.286;2023-05-03T12:47:39;6.45;;;1.00;;
64826;SDS011;51265;53.972;12.286;2023-05-03T12:50:07;3.97;;;1.08;;
64826;SDS011;51265;53.972;12.286;2023-05-03T12:52:34;4.82;;;1.00;;
64826;SDS011;51265;53.972;12.286;2023-05-03T12:55:05;6.30;;;1.23;;
64826;SDS011;51265;53.972;12.286;2023-05-03T12:57:42;6.10;;;1.33;;
64826;SDS011;51265;53.972;12.286;2023-05-03T13:00:08;4.88;;;1.13;;
64826;SDS011;51265;53.972;12.286;2023-05-03T13:02:36;2.95;;;1.00;;
64826;SDS011;51265;53.972;12.286;2023-05-03T13:05:02;5.22;;;1.30;;
64826;SDS011;51265;53.972;12.286;2023-05-03T13:07:28;3.83;;;0.85;;
64826;SDS011;51265;53.972;12.286;2023-05-03T13:09:56;5.28;;;1.02;;
64826;SDS011;51265;53.972;12.286;2023-05-03T13:12:23;4.97;;;1.38;;
64826;SDS011;51265;53.972;12.286;2023-05-03T13:14:50;7.88;;;1.17;;
64826;SDS011;51265;53.972;12.286;2023-05-03T13:17:19;5.38;;;1.30;;
64826;SDS011;51265;53.972;12.286;2023-05-03T13:19:47;5.43;;;1.23;;
64826;SDS011;51265;53.972;12.286;2023-05-03T13:22:15;4.32;;;1.13;;
64826;SDS011;51265;53.972;12.286;2023-05-03T13:24:42;6.72;;;1.08;;
64826;SDS011;51265;53.972;12.286;2023-05-03T13:27:10;2.70;;;0.82;;
64826;SDS011;51265;53.972;12.286;2023-05-03T13:29:36;2.95;;;0.80;;
64826;SDS011;51265;53.972;12.286;2023-05-03T13:32:03;6.00;;;0.90;;
64826;SDS011;51265;53.972;12.286;2023-05-03T13:34:30;7.05;;;0.95;;
64826;SDS011;51265;53.972;12.286;2023-05-03T13:36:57;5.53;;;1.13;;
64826;SDS011;51265;53.972;12.286;2023-05-03T13:39:24;4.97;;;1.00;;
64826;SDS011;51265;53.972;12.286;2023-05-03T13:41:50;4.70;;;1.00;;
64826;SDS011;51265;53.972;12.286;2023-05-03T13:44:17;4.55;;;1.20;;
64826;SDS011;51265;53.972;12.286;2023-05-03T13:46:44;3.20;;;0.90;;
64826;SDS011;51265;53.972;12.286;2023-05-03T13:49:11;5.97;;;1.00;;
64826;SDS011;51265;53.972;12.286;2023-05-03T13:51:37;4.07;;;1.00;;
64826;SDS011;51265;53.972;12.286;2023-05-03T13:54:04;6.07;;;1.08;;
64826;SDS011;51265;53.972;12.286;2023-05-03T13:56:31;4.25;;;0.80;;
64826;SDS011;51265;53.972;12.286;2023-05-03T13:58:58;4.55;;;0.80;;
64826;SDS011;51265;53.972;12.286;2023-05-03T14:01:26;6.38;;;1.02;;
64826;SDS011;51265;53.972;12.286;2023-05-03T14:03:54;3.50;;;0.68;;
64826;SDS011;51265;53.972;12.286;2023-05-03T14:06:20;4.22;;;0.90;;
64826;SDS011;51265;53.972;12.286;2023-05-03T14:08:48;2.63;;;0.70;;
64826;SDS011;51265;53.972;12.286;2023-05-03T14:11:16;4.10;;;0.75;;
64826;SDS011;51265;53.972;12.286;2023-05-03T14:13:48;3.08;;;1.27;;
64826;SDS011;51265;53.972;12.286;2023-05-03T14:18:43;3.08;;;0.88;;
64826;SDS011;51265;53.972;12.286;2023-05-03T14:21:09;4.25;;;0.77;;
64826;SDS011;51265;53.972;12.286;2023-05-03T14:23:37;2.63;;;0.75;;
64826;SDS011;51265;53.972;12.286;2023-05-03T14:26:04;1.85;;;0.68;;
64826;SDS011;51265;53.972;12.286;2023-05-03T14:28:31;1.60;;;0.60;;
64826;SDS011;51265;53.972;12.286;2023-05-03T14:30:58;2.53;;;0.77;;
64826;SDS011;51265;53.972;12.286;2023-05-03T14:33:24;4.38;;;0.90;;
64826;SDS011;51265;53.972;12.286;2023-05-03T14:35:51;5.07;;;1.00;;
64826;SDS011;51265;53.972;12.286;2023-05-03T14:38:17;3.75;;;1.25;;
64826;SDS011;51265;53.972;12.286;2023-05-03T14:40:43;3.10;;;0.90;;
64826;SDS011;51265;53.972;12.286;2023-05-03T14:43:10;2.88;;;0.95;;
64826;SDS011;51265;53.972;12.286;2023-05-03T14:45:36;6.45;;;0.90;;
64826;SDS011;51265;53.972;12.286;2023-05-03T14:48:03;4.35;;;1.20;;
64826;SDS011;51265;53.972;12.286;2023-05-03T14:50:30;4.63;;;1.05;;
64826;SDS011;51265;53.972;12.286;2023-05-03T14:52:56;3.83;;;1.10;;
64826;SDS011;51265;53.972;12.286;2023-05-03T14:55:23;8.00;;;1.25;;
64826;SDS011;51265;53.972;12.286;2023-05-03T14:57:49;2.88;;;0.88;;
64826;SDS011;51265;53.972;12.286;2023-05-03T15:00:16;3.38;;;0.80;;
64826;SDS011;51265;53.972;12.286;2023-05-03T15:02:44;6.53;;;1.52;;